Time;durP1;ratioP1;P1;durP2;ratioP2;P2;SDS_P1;SDS_P2;PMS_P1;PMS_P2;Temp;Humidity;BMP_temperature;BMP_pressure;BME280_temperature;BME280_humidity;BME280_pressure;Samples;Min_cycle;Max_cycle;Signal;HPM_P1;HPM_P2
2021/12/31 00:01:59;;;;;;;32.63;11.65;;;;;;;-16.14;69.43;99364.78;5036852;28;20088;-65
2021/12/31 00:04:30;;;;;;;20.45;7.50;;;;;;;-16.13;69.19;99366.50;5035763;28;20060;-65
2021/12/31 00:07:01;;;;;;;40.03;11.57;;;;;;;-16.18;68.78;99357.78;5038578;28;20049;-65
2021/12/31 00:09:32;;;;;;;56.08;14.80;;;;;;;-16.20;68.53;99354.31;5038541;28;20359;-66
2021/12/31 00:12:04;;;;;;;31.92;10.55;;;;;;;-16.14;69.05;99348.91;5038545;28;20049;-65
2021/12/31 00:14:36;;;;;;;24.45;8.70;;;;;;;-16.05;69.13;99343.69;5037858;28;20072;-65
2021/12/31 00:17:07;;;;;;;24.60;7.65;;;;;;;-15.79;69.16;99358.97;5037603;28;20053;-65
2021/12/31 00:19:43;;;;;;;14.60;5.63;;;;;;;-15.67;69.05;99349.81;5037846;28;20073;-65
2021/12/31 00:22:42;;;;;;;12.23;5.30;;;;;;;-15.52;68.98;99349.13;5036170;28;20049;-65
2021/12/31 00:25:13;;;;;;;11.93;5.18;;;;;;;-15.48;68.59;99348.59;5038155;28;20108;-66
2021/12/31 00:27:43;;;;;;;8.95;4.28;;;;;;;-15.50;68.36;99330.09;5038199;28;20124;-67
2021/12/31 00:30:16;;;;;;;7.85;3.85;;;;;;;-15.43;68.01;99332.25;5038042;28;20065;-66
2021/12/31 00:32:48;;;;;;;9.52;3.63;;;;;;;-15.25;68.59;99341.09;5038480;28;20113;-66
2021/12/31 00:35:20;;;;;;;5.82;2.97;;;;;;;-15.06;68.77;99337.34;5037834;28;20053;-65
2021/12/31 00:37:51;;;;;;;5.32;3.08;;;;;;;-14.93;68.61;99314.84;5038119;28;20072;-67
2021/12/31 00:40:22;;;;;;;4.40;2.58;;;;;;;-14.66;68.53;99304.97;5038265;28;20115;-65
2021/12/31 00:42:52;;;;;;;9.32;3.17;;;;;;;-14.34;68.04;99310.44;5037725;28;20416;-65
2021/12/31 00:45:26;;;;;;;3.95;2.22;;;;;;;-14.18;67.58;99317.34;5037572;28;20057;-65
2021/12/31 00:47:57;;;;;;;6.32;3.03;;;;;;;-14.13;67.19;99297.56;5036938;28;20049;-65
2021/12/31 00:50:28;;;;;;;13.57;5.30;;;;;;;-14.03;66.83;99297.38;5030208;28;20050;-65
2021/12/31 00:52:59;;;;;;;7.72;4.00;;;;;;;-14.00;66.94;99307.66;5032366;28;20057;-66
2021/12/31 00:55:29;;;;;;;5.35;2.88;;;;;;;-14.16;66.08;99304.91;5028653;28;20160;-66
2021/12/31 00:58:00;;;;;;;6.10;2.60;;;;;;;-14.16;66.20;99279.78;5027570;28;20100;-65
2021/12/31 01:00:33;;;;;;;10.65;5.10;;;;;;;-14.01;65.88;99273.25;5028279;28;20100;-65
2021/12/31 01:03:04;;;;;;;11.68;6.05;;;;;;;-14.08;65.49;99263.59;5036310;28;20058;-64
2021/12/31 01:05:35;;;;;;;9.75;4.22;;;;;;;-14.11;65.83;99270.91;5035017;28;20128;-67
2021/12/31 01:08:06;;;;;;;8.20;4.93;;;;;;;-13.79;66.19;99272.13;5028100;28;20042;-65
2021/12/31 01:10:37;;;;;;;6.70;4.13;;;;;;;-13.52;65.69;99263.81;5028551;28;20049;-66
2021/12/31 01:13:13;;;;;;;22.85;12.63;;;;;;;-13.35;65.54;99261.44;5025900;28;20559;-65
2021/12/31 01:15:46;;;;;;;7.30;4.50;;;;;;;-12.99;65.34;99267.81;5026805;28;20081;-64
2021/12/31 01:18:22;;;;;;;7.15;3.38;;;;;;;-12.83;64.80;99254.50;5025294;28;20081;-64
2021/12/31 01:20:53;;;;;;;3.25;2.58;;;;;;;-12.70;64.37;99251.97;5028907;28;20239;-64
2021/12/31 01:23:24;;;;;;;2.28;2.08;;;;;;;-12.49;63.37;99238.88;5025227;28;20118;-64
2021/12/31 01:25:54;;;;;;;2.25;2.00;;;;;;;-12.30;63.38;99229.09;5025362;28;20048;-64
2021/12/31 01:28:25;;;;;;;5.20;2.60;;;;;;;-12.08;62.34;99245.41;5026410;28;20121;-64
2021/12/31 01:30:57;;;;;;;6.65;3.40;;;;;;;-12.09;62.31;99215.97;5027290;28;20049;-64
2021/12/31 01:33:28;;;;;;;5.68;3.58;;;;;;;-11.95;62.15;99220.16;5027518;28;20060;-64
2021/12/31 01:35:59;;;;;;;3.65;2.28;;;;;;;-11.91;62.18;99209.44;5025629;28;20054;-65
2021/12/31 01:38:30;;;;;;;3.75;1.90;;;;;;;-11.89;62.14;99202.84;5025426;28;20053;-64
2021/12/31 01:41:01;;;;;;;2.38;2.17;;;;;;;-11.69;61.52;99218.16;5025612;28;20116;-64
2021/12/31 01:43:31;;;;;;;3.97;2.25;;;;;;;-11.54;62.03;99201.34;5024727;28;20092;-66
2021/12/31 01:46:11;;;;;;;2.30;2.05;;;;;;;-11.53;62.40;99152.66;5025861;28;20061;-65
2021/12/31 01:49:02;;;;;;;1.90;1.73;;;;;;;-11.31;61.22;99173.16;5023013;28;20092;-65
2021/12/31 01:51:33;;;;;;;3.58;2.05;;;;;;;-11.12;60.83;99190.13;5027063;28;20069;-65
2021/12/31 01:54:04;;;;;;;3.50;2.42;;;;;;;-10.97;61.31;99174.91;5025927;28;20070;-65
2021/12/31 01:56:36;;;;;;;2.65;1.80;;;;;;;-11.17;58.59;99178.06;5025210;28;20093;-65
2021/12/31 01:59:08;;;;;;;2.10;1.77;;;;;;;-11.17;59.37;99178.94;5025492;28;20045;-64
2021/12/31 02:01:41;;;;;;;1.80;1.70;;;;;;;-11.09;59.57;99171.75;5025293;28;20291;-65
2021/12/31 02:04:12;;;;;;;2.03;1.83;;;;;;;-11.07;59.55;99160.09;5024843;28;20065;-65
2021/12/31 02:06:43;;;;;;;4.72;1.88;;;;;;;-10.97;60.25;99149.69;5024168;28;20053;-66
2021/12/31 02:09:14;;;;;;;2.33;2.05;;;;;;;-10.70;60.02;99151.88;5026875;28;20061;-65
2021/12/31 02:11:44;;;;;;;2.42;1.90;;;;;;;-10.60;59.57;99138.91;5025732;28;20076;-65
2021/12/31 02:14:15;;;;;;;2.22;1.85;;;;;;;-10.52;59.03;99155.28;5024783;28;20073;-65
2021/12/31 02:16:48;;;;;;;2.75;2.00;;;;;;;-10.54;59.09;99149.28;5027270;28;20037;-65
2021/12/31 02:19:27;;;;;;;3.58;1.75;;;;;;;-10.46;58.87;99137.94;5029206;28;20066;-65
2021/12/31 02:21:59;;;;;;;7.28;3.50;;;;;;;-10.25;58.16;99122.03;5031569;28;20061;-64
2021/12/31 02:24:30;;;;;;;6.55;3.10;;;;;;;-9.81;57.84;99146.84;5028698;28;20100;-64
2021/12/31 02:27:01;;;;;;;2.42;2.00;;;;;;;-9.72;56.96;99133.75;5031298;28;20307;-64
2021/12/31 02:29:32;;;;;;;2.67;1.70;;;;;;;-9.61;57.05;99135.13;5028535;28;20570;-64
2021/12/31 02:32:02;;;;;;;7.35;2.13;;;;;;;-9.59;56.44;99128.44;5029521;28;20117;-64
2021/12/31 02:34:33;;;;;;;5.45;1.80;;;;;;;-9.42;55.80;99123.31;5027878;28;20547;-64
2021/12/31 02:37:06;;;;;;;3.30;1.98;;;;;;;-9.26;55.74;99123.19;5030621;28;20045;-63
2021/12/31 02:39:39;;;;;;;2.28;1.85;;;;;;;-9.30;55.39;99060.59;5029201;28;20083;-64
2021/12/31 02:42:10;;;;;;;3.15;1.90;;;;;;;-8.80;54.97;99124.28;5035284;28;20061;-65
2021/12/31 02:44:42;;;;;;;2.00;1.80;;;;;;;-8.82;54.05;99116.59;5034840;28;20053;-65
2021/12/31 02:47:13;;;;;;;4.70;1.70;;;;;;;-8.86;54.02;99108.81;5034549;28;20145;-65
2021/12/31 02:49:46;;;;;;;3.60;1.75;;;;;;;-9.07;53.83;99113.84;5034149;28;20049;-65
2021/12/31 02:52:19;;;;;;;3.05;1.67;;;;;;;-9.78;53.29;98984.38;5035102;28;20049;-65
2021/12/31 02:54:51;;;;;;;6.13;2.42;;;;;;;-9.18;53.42;99116.78;5034876;28;20045;-64
2021/12/31 02:57:22;;;;;;;2.35;1.90;;;;;;;-9.33;53.74;99106.00;5034504;28;20112;-65
2021/12/31 02:59:53;;;;;;;2.45;2.10;;;;;;;-9.61;54.40;99039.06;5034337;28;20136;-65
2021/12/31 03:02:26;;;;;;;3.10;1.73;;;;;;;-9.30;54.47;99101.06;5034646;28;20121;-64
2021/12/31 03:05:00;;;;;;;2.75;1.60;;;;;;;-9.60;53.19;99086.28;5034073;28;20394;-64
2021/12/31 03:07:35;;;;;;;1.92;1.70;;;;;;;-9.86;54.26;99094.34;5034358;28;20084;-63
2021/12/31 03:10:07;;;;;;;1.92;1.67;;;;;;;-9.81;55.01;99095.41;5034764;28;20049;-64
2021/12/31 03:12:40;;;;;;;5.00;2.20;;;;;;;-9.81;55.12;99095.41;5034597;28;20088;-64
2021/12/31 03:15:12;;;;;;;2.45;1.83;;;;;;;-9.99;53.78;99063.47;5034674;28;20041;-64
2021/12/31 03:17:45;;;;;;;2.00;1.80;;;;;;;-10.13;54.22;99091.41;5034087;28;20542;-63
2021/12/31 03:20:25;;;;;;;1.95;1.70;;;;;;;-10.57;54.11;99043.13;5034071;28;20072;-63
2021/12/31 03:22:58;;;;;;;2.42;1.90;;;;;;;-10.49;54.43;99087.25;5033627;28;20104;-63
2021/12/31 03:25:28;;;;;;;2.00;1.90;;;;;;;-10.73;55.16;99065.88;5033858;28;20187;-63
2021/12/31 03:27:59;;;;;;;2.70;1.70;;;;;;;-10.72;55.56;99072.69;5033745;28;20136;-63
2021/12/31 03:30:30;;;;;;;2.85;1.90;;;;;;;-10.73;55.86;99075.97;5034725;28;20304;-64
2021/12/31 03:33:00;;;;;;;6.70;2.35;;;;;;;-10.42;55.55;99079.19;5035395;28;20060;-64
2021/12/31 03:35:31;;;;;;;7.95;3.50;;;;;;;-10.23;55.48;99077.50;5035235;28;20662;-64
2021/12/31 03:38:03;;;;;;;5.38;3.22;;;;;;;-10.31;54.80;99040.94;5034173;28;20394;-64
2021/12/31 03:40:34;;;;;;;3.47;2.55;;;;;;;-10.16;54.90;99066.88;5032862;28;20377;-64
2021/12/31 03:43:05;;;;;;;4.40;1.80;;;;;;;-10.25;55.63;99071.50;5033872;28;20053;-64
2021/12/31 03:45:36;;;;;;;1.73;1.63;;;;;;;-10.35;55.46;99054.25;5034045;28;20120;-64
2021/12/31 03:48:07;;;;;;;2.00;1.70;;;;;;;-10.87;55.32;99038.31;5033860;28;20083;-64
2021/12/31 03:50:38;;;;;;;1.85;1.75;;;;;;;-10.77;56.45;99059.81;5034004;28;20037;-64
2021/12/31 03:53:10;;;;;;;2.65;1.70;;;;;;;-10.70;57.07;99058.47;5033680;28;20056;-64
2021/12/31 03:55:41;;;;;;;2.03;1.90;;;;;;;-10.68;56.87;99050.19;5033963;28;20079;-64
2021/12/31 03:58:12;;;;;;;1.90;1.65;;;;;;;-10.62;56.19;99048.75;5034100;28;20111;-65
2021/12/31 04:00:45;;;;;;;2.03;1.65;;;;;;;-10.58;56.49;99051.50;5033669;28;20382;-65
2021/12/31 04:03:16;;;;;;;2.08;1.95;;;;;;;-10.66;56.09;99063.75;5033960;28;20068;-64
2021/12/31 04:05:49;;;;;;;2.47;2.10;;;;;;;-10.90;55.82;99063.41;5033854;28;20053;-64
2021/12/31 04:08:22;;;;;;;2.20;1.80;;;;;;;-11.22;56.56;99060.97;5034153;28;20046;-66
2021/12/31 04:10:53;;;;;;;2.42;1.90;;;;;;;-11.36;56.88;99061.13;5033777;28;20073;-64
2021/12/31 04:13:23;;;;;;;1.75;1.65;;;;;;;-11.49;56.97;99053.72;5033772;28;20046;-64
2021/12/31 04:15:54;;;;;;;5.60;1.90;;;;;;;-11.51;57.28;99055.28;5033601;28;20046;-64
2021/12/31 04:18:26;;;;;;;1.70;1.60;;;;;;;-11.52;57.75;99048.53;5033683;28;20053;-64
2021/12/31 04:20:58;;;;;;;2.63;2.13;;;;;;;-11.49;57.25;99033.56;5033391;28;20045;-64
2021/12/31 04:23:33;;;;;;;3.13;1.80;;;;;;;-11.25;57.35;99063.34;5034718;28;20175;-65
2021/12/31 04:26:05;;;;;;;2.20;1.90;;;;;;;-11.40;58.07;99054.19;5033935;28;20057;-64
2021/12/31 04:28:37;;;;;;;1.80;1.70;;;;;;;-11.33;58.75;99071.38;5033391;28;20368;-65
2021/12/31 04:31:08;;;;;;;2.10;1.90;;;;;;;-11.34;58.85;99069.63;5033555;28;20122;-66
2021/12/31 04:33:39;;;;;;;4.47;2.00;;;;;;;-11.53;59.10;99066.94;5034159;28;20049;-66
2021/12/31 04:36:11;;;;;;;1.90;1.80;;;;;;;-11.68;59.30;99053.56;5034508;28;20096;-65
2021/12/31 04:38:44;;;;;;;4.05;2.53;;;;;;;-11.65;59.48;99061.31;5033671;28;20053;-65
2021/12/31 04:41:14;;;;;;;2.20;2.00;;;;;;;-11.70;58.84;99072.75;5033053;28;20072;-66
2021/12/31 04:43:45;;;;;;;3.92;2.22;;;;;;;-11.72;58.48;99066.00;5033053;28;20111;-64
2021/12/31 04:46:16;;;;;;;2.17;1.98;;;;;;;-11.76;57.92;99064.09;5033114;28;20065;-65
2021/12/31 04:48:47;;;;;;;2.03;1.83;;;;;;;-11.79;57.66;99068.97;5032937;28;20571;-64
2021/12/31 04:51:18;;;;;;;3.20;1.90;;;;;;;-11.78;56.88;99060.66;5032980;28;20045;-66
2021/12/31 04:53:52;;;;;;;1.90;1.77;;;;;;;-11.84;56.40;99070.41;5032426;28;20385;-65
2021/12/31 04:56:24;;;;;;;2.13;1.85;;;;;;;-12.20;55.67;99029.94;5032602;28;20088;-65
2021/12/31 04:58:55;;;;;;;1.80;1.70;;;;;;;-12.07;55.70;99070.88;5033480;28;20113;-65
2021/12/31 05:01:26;;;;;;;2.15;1.92;;;;;;;-12.01;55.27;99066.16;5032490;28;20087;-65
2021/12/31 05:03:57;;;;;;;2.00;1.90;;;;;;;-12.01;54.94;99061.13;5032931;28;20061;-65
2021/12/31 05:06:27;;;;;;;1.73;1.63;;;;;;;-12.04;53.48;99071.03;5032638;28;20120;-64
2021/12/31 05:09:00;;;;;;;2.22;1.70;;;;;;;-12.19;52.58;99071.94;5032787;28;20072;-64
2021/12/31 05:11:30;;;;;;;3.58;2.05;;;;;;;-12.20;52.97;99084.47;5032708;28;20071;-64
2021/12/31 05:14:01;;;;;;;3.75;2.03;;;;;;;-12.18;52.97;99098.88;5033021;28;20050;-64
2021/12/31 05:16:35;;;;;;;4.32;2.20;;;;;;;-12.27;52.69;99093.31;5033083;28;20053;-65
2021/12/31 05:19:06;;;;;;;2.70;1.90;;;;;;;-12.67;52.99;99035.75;5032688;28;20069;-64
2021/12/31 05:21:37;;;;;;;2.78;1.90;;;;;;;-12.43;53.30;99090.72;5032562;28;20064;-65
2021/12/31 05:24:10;;;;;;;3.55;1.90;;;;;;;-12.39;53.05;99115.31;5032820;28;20260;-64
2021/12/31 05:26:41;;;;;;;2.30;1.88;;;;;;;-12.49;53.35;99105.50;5032538;28;20083;-64
2021/12/31 05:29:11;;;;;;;3.33;2.20;;;;;;;-12.49;53.26;99096.31;5032721;28;20061;-64
2021/12/31 05:31:42;;;;;;;2.35;2.13;;;;;;;-12.45;55.18;99120.00;5032474;28;20244;-65
2021/12/31 05:34:13;;;;;;;2.15;1.95;;;;;;;-12.47;55.65;99109.84;5032376;28;20068;-65
2021/12/31 05:36:44;;;;;;;3.25;2.10;;;;;;;-12.56;55.76;99108.47;5032609;28;20045;-63
2021/12/31 05:39:16;;;;;;;2.90;2.10;;;;;;;-13.05;55.64;99037.00;5031968;28;20053;-65
2021/12/31 05:41:56;;;;;;;2.65;2.30;;;;;;;-12.53;55.72;99128.75;5032300;28;20144;-64
2021/12/31 05:44:29;;;;;;;4.13;2.50;;;;;;;-12.50;55.76;99133.94;5032629;28;20052;-65
2021/12/31 05:47:00;;;;;;;3.05;2.10;;;;;;;-12.61;55.81;99116.59;5031851;28;20259;-64
2021/12/31 05:49:31;;;;;;;3.25;2.40;;;;;;;-12.80;56.83;99063.53;5032447;28;20061;-64
2021/12/31 05:52:02;;;;;;;2.33;2.13;;;;;;;-12.34;56.24;99141.59;5031618;28;20049;-64
2021/12/31 05:54:35;;;;;;;3.15;2.08;;;;;;;-12.37;56.14;99146.47;5031992;28;20108;-64
2021/12/31 05:57:06;;;;;;;4.30;2.75;;;;;;;-12.78;55.55;99087.13;5032201;28;20037;-64
2021/12/31 05:59:37;;;;;;;2.75;2.05;;;;;;;-12.63;56.24;99118.19;5032242;28;20354;-64
2021/12/31 06:02:08;;;;;;;2.83;1.90;;;;;;;-12.48;56.05;99137.44;5032097;28;20079;-64
2021/12/31 06:04:39;;;;;;;2.20;2.00;;;;;;;-12.84;55.49;99114.44;5032243;28;20065;-64
2021/12/31 06:07:11;;;;;;;1.95;1.85;;;;;;;-12.79;55.38;99145.75;5032159;28;20136;-63
2021/12/31 06:09:44;;;;;;;2.25;1.80;;;;;;;-13.00;55.55;99124.38;5031926;28;20041;-63
2021/12/31 06:12:15;;;;;;;2.05;1.90;;;;;;;-13.06;55.68;99125.78;5031785;28;20061;-64
2021/12/31 06:14:46;;;;;;;3.00;2.30;;;;;;;-13.11;55.79;99132.19;5031706;28;20055;-63
2021/12/31 06:17:22;;;;;;;5.93;3.10;;;;;;;-13.20;55.83;99129.16;5034536;28;20049;-63
2021/12/31 06:19:53;;;;;;;3.10;2.75;;;;;;;-13.15;56.48;99150.41;5036406;28;20088;-63
2021/12/31 06:22:24;;;;;;;44.08;12.57;;;;;;;-13.21;57.10;99144.13;5036868;28;20327;-64
2021/12/31 06:24:57;;;;;;;69.90;23.60;;;;;;;-13.34;57.14;99142.56;5036704;28;20069;-64
2021/12/31 06:27:28;;;;;;;35.17;12.63;;;;;;;-13.48;57.45;99140.09;5036723;28;20243;-64
2021/12/31 06:29:58;;;;;;;31.63;10.38;;;;;;;-13.70;57.81;99122.00;5035651;28;20331;-64
2021/12/31 06:32:29;;;;;;;26.98;7.90;;;;;;;-13.94;58.38;99102.16;5035023;28;20080;-64
2021/12/31 06:35:00;;;;;;;16.85;6.68;;;;;;;-13.87;58.44;99157.78;5035652;28;20054;-63
2021/12/31 06:37:31;;;;;;;12.80;3.50;;;;;;;-14.38;59.00;99142.03;5034782;28;20049;-63
2021/12/31 06:40:05;;;;;;;7.53;3.45;;;;;;;-14.78;60.00;99125.34;5036552;28;20050;-63
2021/12/31 06:42:37;;;;;;;3.20;2.83;;;;;;;-15.00;61.08;99139.75;5036338;28;20087;-65
2021/12/31 06:45:08;;;;;;;7.07;3.42;;;;;;;-15.26;62.28;99143.91;5036743;28;20099;-64
2021/12/31 06:47:39;;;;;;;7.05;2.70;;;;;;;-16.03;62.85;99052.78;5036349;28;20061;-64
2021/12/31 06:50:11;;;;;;;12.80;4.00;;;;;;;-15.57;63.69;99155.13;5036287;28;20061;-65
2021/12/31 06:52:43;;;;;;;20.90;7.82;;;;;;;-15.69;63.86;99166.06;5036572;28;20292;-63
2021/12/31 06:55:16;;;;;;;65.85;19.63;;;;;;;-16.15;64.03;99147.88;5036254;28;20064;-64
2021/12/31 06:57:49;;;;;;;33.50;12.48;;;;;;;-16.37;64.53;99159.63;5036382;28;20419;-62
2021/12/31 07:00:20;;;;;;;25.08;9.65;;;;;;;-16.60;65.63;99161.34;5036313;28;20065;-64
2021/12/31 07:02:51;;;;;;;29.65;9.82;;;;;;;-16.69;66.19;99160.69;5036224;28;20091;-64
2021/12/31 07:05:22;;;;;;;46.40;13.40;;;;;;;-16.87;66.56;99149.38;5040022;28;20116;-63
2021/12/31 07:07:53;;;;;;;56.40;15.57;;;;;;;-16.91;66.68;99167.44;5039689;28;20057;-65
2021/12/31 07:10:27;;;;;;;25.65;8.98;;;;;;;-17.12;67.10;99152.59;5039734;28;20112;-64
2021/12/31 07:12:58;;;;;;;20.52;7.22;;;;;;;-18.06;67.52;99020.03;5022575;28;20057;-64
2021/12/31 07:15:30;;;;;;;59.40;17.90;;;;;;;-17.78;67.63;99091.91;5039766;28;20057;-65
2021/12/31 07:18:01;;;;;;;40.75;11.00;;;;;;;-17.56;68.21;99181.72;5039808;28;20124;-65
2021/12/31 07:20:32;;;;;;;314.67;50.75;;;;;;;-17.67;68.87;99160.94;5034053;28;20059;-65
2021/12/31 07:23:06;;;;;;;228.07;39.13;;;;;;;-17.66;69.32;99165.19;5036123;28;20479;-65
2021/12/31 07:25:39;;;;;;;118.10;25.13;;;;;;;-17.71;69.54;99152.34;5035836;28;20080;-66
2021/12/31 07:28:11;;;;;;;316.77;66.55;;;;;;;-17.91;69.93;99132.53;5035659;28;20073;-65
2021/12/31 07:30:43;;;;;;;349.95;78.47;;;;;;;-17.94;69.96;99152.25;5035763;28;20055;-66
2021/12/31 07:33:18;;;;;;;289.58;67.03;;;;;;;-17.97;69.69;99160.34;5035820;28;20069;-66
2021/12/31 07:35:48;;;;;;;284.15;60.72;;;;;;;-18.13;69.84;99159.94;5035699;28;20746;-66
2021/12/31 07:38:22;;;;;;;219.13;49.35;;;;;;;-18.25;69.82;99161.47;5034291;28;20067;-65
2021/12/31 07:40:55;;;;;;;181.05;36.70;;;;;;;-18.51;69.49;99150.34;5034162;28;20088;-65
2021/12/31 07:43:25;;;;;;;64.65;17.92;;;;;;;-18.59;69.82;99158.81;5035556;28;20236;-64
2021/12/31 07:45:56;;;;;;;59.05;16.73;;;;;;;-19.41;70.00;99057.72;5035668;28;20419;-65
2021/12/31 07:48:28;;;;;;;18.45;7.47;;;;;;;-19.00;70.81;99126.53;5035968;28;20507;-64
2021/12/31 07:50:58;;;;;;;6.43;4.82;;;;;;;-18.86;71.30;99160.88;5036004;28;20057;-66
2021/12/31 07:53:29;;;;;;;8.27;4.70;;;;;;;-18.79;71.76;99154.75;5035783;28;20059;-64
2021/12/31 07:56:01;;;;;;;506.50;69.25;;;;;;;-18.71;71.78;99162.06;5035894;28;20041;-65
2021/12/31 07:58:32;;;;;;;471.17;72.75;;;;;;;-19.02;71.80;99103.97;5035294;28;20081;-64
2021/12/31 08:01:03;;;;;;;111.18;22.42;;;;;;;-18.78;71.75;99154.88;5035669;28;20597;-65
2021/12/31 08:03:35;;;;;;;26.90;6.32;;;;;;;-18.80;71.82;99168.84;5034793;28;20060;-65
2021/12/31 08:06:06;;;;;;;14.60;5.47;;;;;;;-18.87;72.13;99169.09;5034704;28;20065;-66
2021/12/31 08:08:36;;;;;;;12.50;5.55;;;;;;;-18.98;72.24;99159.91;5035268;28;20049;-64
2021/12/31 08:11:09;;;;;;;48.58;8.07;;;;;;;-19.82;72.22;99024.53;5035151;28;20339;-65
2021/12/31 08:13:40;;;;;;;169.40;25.70;;;;;;;-18.86;72.29;99180.81;5034856;28;20109;-64
2021/12/31 08:16:10;;;;;;;98.57;17.10;;;;;;;-19.88;72.04;99004.16;5035029;28;20208;-63
2021/12/31 08:18:41;;;;;;;35.35;8.82;;;;;;;-18.94;72.14;99174.34;5035290;28;20128;-63
2021/12/31 08:21:12;;;;;;;35.03;9.88;;;;;;;-18.93;72.29;99178.56;5035157;28;20095;-65
2021/12/31 08:23:43;;;;;;;10.73;4.60;;;;;;;-18.96;72.37;99178.31;5035053;28;20067;-65
2021/12/31 08:26:16;;;;;;;2.55;2.42;;;;;;;-18.91;72.41;99182.06;5034957;28;20387;-65
2021/12/31 08:28:46;;;;;;;5.38;2.90;;;;;;;-18.96;72.82;99178.31;5034852;28;20054;-64
2021/12/31 08:31:17;;;;;;;6.53;3.60;;;;;;;-19.53;72.69;99085.72;5035038;28;20108;-64
2021/12/31 08:33:48;;;;;;;27.08;7.35;;;;;;;-18.79;72.86;99192.13;5034455;28;20057;-63
2021/12/31 08:36:18;;;;;;;28.73;9.13;;;;;;;-18.81;72.50;99199.50;5034778;28;20339;-63
2021/12/31 08:38:49;;;;;;;34.63;11.32;;;;;;;-18.95;72.63;99180.06;5034576;28;20052;-64
2021/12/31 08:41:21;;;;;;;54.00;11.80;;;;;;;-18.88;72.58;99202.22;5034737;28;20079;-63
2021/12/31 08:44:12;;;;;;;12.00;5.10;;;;;;;-19.01;72.70;99200.34;5034170;28;20476;-62
2021/12/31 08:46:43;;;;;;;23.75;7.35;;;;;;;-19.04;73.08;99174.31;5034375;28;20369;-63
2021/12/31 08:49:14;;;;;;;59.45;12.60;;;;;;;-18.52;73.02;99203.41;5034416;28;20053;-62
2021/12/31 08:51:45;;;;;;;16.13;5.22;;;;;;;-18.46;72.27;99193.94;5033743;28;20062;-64
2021/12/31 08:54:16;;;;;;;112.40;21.70;;;;;;;-18.47;70.96;99217.09;5034368;28;20630;-64
2021/12/31 08:56:48;;;;;;;595.45;105.50;;;;;;;-18.52;70.65;99221.75;5034340;28;20060;-63
2021/12/31 08:59:24;;;;;;;268.75;49.85;;;;;;;-18.79;69.88;99207.06;5034555;28;20280;-63
2021/12/31 09:01:55;;;;;;;153.05;34.45;;;;;;;-18.79;69.18;99200.50;5034572;28;20560;-65
2021/12/31 09:04:25;;;;;;;21.63;8.15;;;;;;;-19.21;68.71;99151.44;5033819;28;20511;-63
2021/12/31 09:06:57;;;;;;;15.57;6.10;;;;;;;-18.57;69.63;99234.56;5033231;28;20068;-63
2021/12/31 09:09:28;;;;;;;36.42;9.57;;;;;;;-18.70;68.86;99233.56;5033860;28;20112;-64
2021/12/31 09:12:00;;;;;;;32.75;9.93;;;;;;;-18.74;68.65;99236.56;5034174;28;20076;-64
2021/12/31 09:14:31;;;;;;;17.08;6.28;;;;;;;-19.05;68.34;99207.44;5033251;28;20091;-64
2021/12/31 09:17:02;;;;;;;13.95;5.80;;;;;;;-19.21;68.46;99226.09;5032677;28;20053;-64
2021/12/31 09:19:33;;;;;;;24.33;8.23;;;;;;;-18.93;68.81;99250.78;5033471;28;20061;-64
2021/12/31 09:22:06;;;;;;;7.95;4.32;;;;;;;-19.12;69.45;99255.00;5032702;28;20088;-64
2021/12/31 09:24:37;;;;;;;12.32;6.00;;;;;;;-19.42;69.39;99239.25;5032407;28;20049;-65
2021/12/31 09:27:10;;;;;;;14.73;5.78;;;;;;;-19.32;69.69;99259.16;5030467;28;20065;-61
2021/12/31 09:29:41;;;;;;;11.32;5.82;;;;;;;-19.43;69.11;99257.41;5032658;28;20103;-63
2021/12/31 09:32:12;;;;;;;28.52;10.13;;;;;;;-19.53;69.16;99264.84;5033162;28;20776;-63
2021/12/31 09:34:44;;;;;;;43.30;11.65;;;;;;;-19.51;69.34;99261.75;5033041;28;20060;-62
2021/12/31 09:37:15;;;;;;;24.85;9.40;;;;;;;-19.49;69.30;99267.72;5032766;28;20077;-63
2021/12/31 09:39:46;;;;;;;18.60;7.82;;;;;;;-19.47;69.42;99265.34;5031201;28;20059;-62
2021/12/31 09:42:18;;;;;;;6.15;4.70;;;;;;;-19.69;68.97;99253.63;5033296;28;20041;-63
2021/12/31 09:44:49;;;;;;;4.78;4.38;;;;;;;-20.27;69.44;99193.94;5032099;28;20080;-63
2021/12/31 09:47:22;;;;;;;4.95;4.30;;;;;;;-20.00;69.75;99220.28;5033315;28;20075;-63
2021/12/31 09:49:53;;;;;;;4.88;3.47;;;;;;;-20.28;70.03;99157.41;5005402;28;20110;-65
2021/12/31 09:52:28;;;;;;;5.00;3.40;;;;;;;-19.68;69.55;99279.38;5032396;28;20072;-63
2021/12/31 09:54:59;;;;;;;3.95;3.55;;;;;;;-20.09;69.29;99254.28;5032480;28;20414;-63
2021/12/31 09:57:31;;;;;;;9.25;6.13;;;;;;;-20.99;69.54;99124.00;5033153;28;20080;-62
2021/12/31 10:00:03;;;;;;;4.15;3.60;;;;;;;-20.17;69.80;99280.97;4978543;28;20061;-64
2021/12/31 10:02:35;;;;;;;6.47;4.88;;;;;;;-20.37;69.79;99265.94;5022905;28;20058;-63
2021/12/31 10:05:06;;;;;;;7.05;4.53;;;;;;;-20.55;70.02;99265.22;5023211;28;20469;-64
2021/12/31 10:07:44;;;;;;;19.95;9.10;;;;;;;-20.69;70.59;99269.84;5022989;28;20081;-64
2021/12/31 10:10:16;;;;;;;20.17;8.75;;;;;;;-20.53;71.10;99284.47;5023496;28;20110;-62
2021/12/31 10:12:56;;;;;;;16.45;9.55;;;;;;;-20.65;71.42;99258.56;5022883;28;20061;-63
2021/12/31 10:15:27;;;;;;;9.75;6.60;;;;;;;-20.49;71.65;99281.53;5023161;28;20041;-64
2021/12/31 10:17:58;;;;;;;6.47;5.20;;;;;;;-20.80;71.98;99237.34;5023045;28;20084;-66
2021/12/31 10:20:29;;;;;;;4.03;3.72;;;;;;;-20.57;72.15;99277.50;5023166;28;20124;-63
2021/12/31 10:23:15;;;;;;;4.95;4.18;;;;;;;-20.74;72.06;99250.28;5022674;28;20126;-63
2021/12/31 10:25:46;;;;;;;3.33;3.13;;;;;;;-20.99;71.98;99210.88;5022452;28;20053;-62
2021/12/31 10:28:19;;;;;;;3.72;3.42;;;;;;;-20.61;71.91;99275.50;5023120;28;20060;-63
2021/12/31 10:30:51;;;;;;;3.58;3.35;;;;;;;-20.48;72.03;99293.19;5023483;28;20425;-63
2021/12/31 10:33:41;;;;;;;4.05;3.25;;;;;;;-20.83;71.91;99229.63;5022690;28;20060;-63
2021/12/31 10:36:33;;;;;;;3.00;2.80;;;;;;;-20.50;71.79;99299.63;5023001;28;20108;-63
2021/12/31 10:39:17;;;;;;;2.78;2.67;;;;;;;-20.58;71.92;99295.63;5027046;28;20075;-63
2021/12/31 10:41:53;;;;;;;3.00;2.80;;;;;;;-20.85;71.82;99265.84;5027714;28;20117;-63
2021/12/31 10:44:41;;;;;;;3.00;2.80;;;;;;;-20.76;71.76;99284.03;5026949;28;20197;-63
2021/12/31 10:47:13;;;;;;;3.15;2.95;;;;;;;-20.83;71.90;99291.69;5027302;28;20112;-65
2021/12/31 10:50:15;;;;;;;6.22;4.85;;;;;;;-20.84;71.92;99288.31;5025876;28;20251;-63
2021/12/31 10:52:58;;;;;;;5.72;5.10;;;;;;;-21.03;71.81;99273.41;5026137;28;20116;-63
2021/12/31 10:55:33;;;;;;;3.40;2.95;;;;;;;-21.26;71.90;99253.06;5025508;28;20054;-64
2021/12/31 10:58:05;;;;;;;3.53;3.22;;;;;;;-21.47;71.72;99228.09;5024469;28;20465;-63
2021/12/31 11:00:39;;;;;;;4.03;3.60;;;;;;;-21.01;72.25;99295.84;5026015;28;20053;-64
2021/12/31 11:03:12;;;;;;;3.78;3.50;;;;;;;-21.18;72.11;99262.09;5025263;28;20053;-64
2021/12/31 11:05:44;;;;;;;5.80;3.25;;;;;;;-21.07;72.29;99283.78;5025535;28;20050;-62
2021/12/31 11:08:15;;;;;;;2.92;2.72;;;;;;;-21.07;72.38;99286.25;5026000;28;20121;-63
2021/12/31 11:10:46;;;;;;;3.05;2.83;;;;;;;-21.09;72.43;99277.78;5025530;28;20482;-62
2021/12/31 11:13:19;;;;;;;5.25;4.22;;;;;;;-21.01;72.71;99296.75;5026235;28;20049;-62
2021/12/31 11:15:52;;;;;;;6.25;4.55;;;;;;;-20.97;72.71;99298.75;5026670;28;20085;-62
2021/12/31 11:18:24;;;;;;;2.80;2.70;;;;;;;-21.20;72.71;99264.41;5027341;28;20080;-62
2021/12/31 11:20:57;;;;;;;2.75;2.65;;;;;;;-21.08;72.74;99284.53;5027253;28;20370;-64
2021/12/31 11:23:29;;;;;;;3.20;3.00;;;;;;;-21.69;72.66;99199.59;5026030;28;20054;-63
2021/12/31 11:26:04;;;;;;;4.10;3.40;;;;;;;-20.95;72.62;99297.28;4998370;28;20093;-63
2021/12/31 11:28:36;;;;;;;4.80;4.38;;;;;;;-20.69;72.43;99296.28;5026053;28;20116;-63
2021/12/31 11:31:27;;;;;;;5.38;3.97;;;;;;;-20.58;72.18;99315.50;5026426;28;20052;-63
2021/12/31 11:34:27;;;;;;;6.60;5.00;;;;;;;-20.67;72.00;99309.69;5026342;28;20071;-62
2021/12/31 11:36:58;;;;;;;12.68;7.00;;;;;;;-20.74;71.95;99288.44;4994286;28;20061;-63
2021/12/31 11:39:30;;;;;;;49.85;16.60;;;;;;;-20.37;71.99;99306.56;5027277;28;21054;-63
2021/12/31 11:42:03;;;;;;;29.50;10.63;;;;;;;-20.26;71.24;99305.03;5026479;28;20042;-62
2021/12/31 11:44:36;;;;;;;37.85;13.25;;;;;;;-20.08;70.65;99306.63;5026250;28;20042;-63
2021/12/31 11:47:14;;;;;;;21.73;9.48;;;;;;;-19.79;70.81;99320.72;5026016;28;20049;-62